Time;durP1;ratioP1;P1;durP2;ratioP2;P2;SDS_P1;SDS_P2;PMS_P1;PMS_P2;Temp;Humidity;BMP_temperature;BMP_pressure;BME280_temperature;BME280_humidity;BME280_pressure;Samples;Min_cycle;Max_cycle;Signal;HPM_P1;HPM_P2
2021/08/09 00:02:14;;;;;;;0.73;0.40;;;29.60;41.60;;;;;;5048930;28;20615;-49
2021/08/09 00:04:42;;;;;;;0.50;0.10;;;29.60;41.60;;;;;;5041088;28;20106;-50
2021/08/09 00:07:10;;;;;;;0.22;0.10;;;29.60;41.60;;;;;;5050660;28;20049;-48
2021/08/09 00:09:37;;;;;;;0.90;0.82;;;29.60;41.60;;;;;;5047529;28;20054;-53
2021/08/09 00:12:05;;;;;;;2.60;1.00;;;29.50;41.50;;;;;;5042034;28;20546;-48
2021/08/09 00:14:32;;;;;;;0.20;0.10;;;29.50;41.50;;;;;;5038265;28;20051;-49
2021/08/09 00:17:00;;;;;;;0.50;0.10;;;29.50;41.60;;;;;;5047591;28;20432;-49
2021/08/09 00:19:27;;;;;;;0.22;0.10;;;29.50;41.50;;;;;;5047980;28;20045;-49
2021/08/09 00:21:55;;;;;;;0.82;0.10;;;29.50;41.50;;;;;;5048661;28;20048;-46
2021/08/09 00:24:22;;;;;;;1.50;0.10;;;29.50;41.60;;;;;;5047171;28;20052;-51
2021/08/09 00:26:49;;;;;;;0.38;0.10;;;29.40;41.60;;;;;;5046851;28;20071;-46
2021/08/09 00:29:17;;;;;;;0.50;0.17;;;29.40;42.20;;;;;;5043178;28;20057;-47
2021/08/09 00:31:44;;;;;;;0.60;0.10;;;29.40;41.60;;;;;;5046947;28;20041;-49
2021/08/09 00:34:11;;;;;;;1.25;0.57;;;29.40;41.60;;;;;;5032838;28;20088;-49
2021/08/09 00:36:38;;;;;;;0.40;0.10;;;29.40;41.60;;;;;;5046804;28;20084;-52
2021/08/09 00:39:08;;;;;;;0.65;0.10;;;29.40;41.60;;;;;;5045933;28;20045;-45
2021/08/09 00:41:37;;;;;;;0.75;0.10;;;29.30;41.50;;;;;;5043780;28;20049;-48
2021/08/09 00:44:06;;;;;;;1.08;0.10;;;29.30;42.10;;;;;;5032377;28;20119;-47
2021/08/09 00:46:35;;;;;;;0.32;0.28;;;29.30;41.50;;;;;;5047933;28;20110;-49
2021/08/09 00:49:02;;;;;;;0.93;0.20;;;29.30;42.20;;;;;;5034842;28;20133;-46
2021/08/09 00:51:31;;;;;;;0.10;0.10;;;29.30;41.50;;;;;;5043947;28;20049;-52
2021/08/09 00:54:02;;;;;;;1.75;0.08;;;29.30;41.50;;;;;;5045694;28;20103;-54
2021/08/09 00:56:32;;;;;;;1.00;0.22;;;29.30;41.60;;;;;;5044029;28;20056;-53
2021/08/09 00:59:00;;;;;;;2.38;0.10;;;29.30;41.60;;;;;;5027072;28;20511;-49
2021/08/09 01:01:28;;;;;;;0.10;0.10;;;29.20;41.50;;;;;;5030068;28;20042;-49
2021/08/09 01:04:00;;;;;;;0.10;0.10;;;29.20;41.50;;;;;;5033656;28;20037;-47
2021/08/09 01:06:28;;;;;;;0.70;0.10;;;29.20;41.50;;;;;;5031492;28;20069;-52
2021/08/09 01:09:04;;;;;;;3.33;0.10;;;29.20;41.50;;;;;;4992169;28;1218061;-50
2021/08/09 01:11:41;;;;;;;1.35;0.10;;;29.20;41.50;;;;;;5031847;28;20052;-49
2021/08/09 01:14:19;;;;;;;0.43;0.10;;;29.20;41.50;;;;;;5017588;28;20530;-49
2021/08/09 01:16:59;;;;;;;0.40;0.10;;;29.20;41.50;;;;;;5033294;28;20136;-54
2021/08/09 01:19:36;;;;;;;0.10;0.10;;;29.20;41.50;;;;;;5047708;28;20045;-46
2021/08/09 01:22:10;;;;;;;0.28;0.10;;;29.20;41.50;;;;;;5045964;28;20041;-50
2021/08/09 01:24:48;;;;;;;0.40;0.05;;;29.20;41.50;;;;;;5047585;28;20061;-49
2021/08/09 01:27:27;;;;;;;0.40;0.10;;;29.10;41.50;;;;;;5048598;28;20049;-50
2021/08/09 01:29:57;;;;;;;0.30;0.00;;;29.10;41.50;;;;;;5041465;28;20103;-50
2021/08/09 01:32:26;;;;;;;1.42;0.30;;;29.10;41.50;;;;;;5035601;28;20084;-51
2021/08/09 01:34:54;;;;;;;1.95;0.10;;;29.10;41.50;;;;;;5045970;28;20052;-51
2021/08/09 01:37:24;;;;;;;0.10;0.05;;;29.10;41.50;;;;;;5050046;28;20049;-49
2021/08/09 01:39:52;;;;;;;0.25;0.20;;;29.10;41.50;;;;;;5043864;28;20477;-47
2021/08/09 01:42:20;;;;;;;1.60;0.00;;;29.10;41.50;;;;;;5037728;28;20038;-49
2021/08/09 01:44:49;;;;;;;0.43;0.03;;;29.10;41.50;;;;;;5038151;28;20102;-49
2021/08/09 01:47:20;;;;;;;0.88;0.10;;;29.10;41.50;;;;;;5046291;28;20041;-47
2021/08/09 01:49:48;;;;;;;0.15;0.10;;;29.00;41.40;;;;;;5029214;28;20044;-45
2021/08/09 01:52:16;;;;;;;0.20;0.20;;;29.00;41.40;;;;;;5039422;28;20045;-49
2021/08/09 01:54:43;;;;;;;0.20;0.00;;;29.10;41.50;;;;;;5035467;28;20056;-46
2021/08/09 01:57:11;;;;;;;0.10;0.00;;;29.10;41.60;;;;;;5040375;28;20057;-46
2021/08/09 01:59:38;;;;;;;1.73;0.00;;;29.00;41.50;;;;;;5044274;28;20111;-48
2021/08/09 02:02:07;;;;;;;1.45;0.10;;;29.00;41.60;;;;;;5028737;28;20136;-46
2021/08/09 02:04:35;;;;;;;0.20;0.10;;;29.00;41.60;;;;;;5044045;28;20049;-49
2021/08/09 02:07:03;;;;;;;1.35;0.10;;;29.00;41.50;;;;;;5046472;28;20045;-46
2021/08/09 02:09:30;;;;;;;0.43;0.10;;;29.00;41.60;;;;;;5035474;28;20061;-53
2021/08/09 02:12:04;;;;;;;0.45;0.00;;;29.00;41.50;;;;;;5038990;28;20033;-47
2021/08/09 02:14:41;;;;;;;1.33;0.20;;;29.00;41.60;;;;;;5044943;28;20049;-46
2021/08/09 02:17:15;;;;;;;0.40;0.05;;;29.00;41.50;;;;;;5045007;28;20040;-51
2021/08/09 02:19:47;;;;;;;3.40;0.40;;;29.00;41.50;;;;;;5045511;28;20045;-49
2021/08/09 02:22:19;;;;;;;0.10;0.10;;;29.00;41.50;;;;;;5046444;28;20063;-46
2021/08/09 02:24:52;;;;;;;0.82;0.10;;;29.00;41.60;;;;;;5040822;28;20045;-45
2021/08/09 02:27:21;;;;;;;0.68;0.10;;;29.00;40.00;;;;;;5042994;28;20411;-45
2021/08/09 02:29:52;;;;;;;3.55;1.10;;;28.70;39.00;;;;;;5036416;28;20042;-46
2021/08/09 02:32:26;;;;;;;1.38;0.10;;;28.30;39.10;;;;;;5031949;28;20183;-45
2021/08/09 02:34:55;;;;;;;2.88;0.10;;;28.00;39.40;;;;;;5032696;28;20037;-45
2021/08/09 02:37:22;;;;;;;3.22;0.10;;;27.70;39.90;;;;;;5025484;28;20385;-47
2021/08/09 02:39:51;;;;;;;1.15;0.10;;;27.30;40.20;;;;;;5058480;28;20494;-47
2021/08/09 02:42:19;;;;;;;1.17;0.38;;;27.00;40.50;;;;;;5033035;28;20573;-46
2021/08/09 02:44:47;;;;;;;1.58;0.10;;;26.80;41.00;;;;;;5036934;28;20045;-48
2021/08/09 02:47:15;;;;;;;2.53;0.68;;;26.50;41.30;;;;;;5044410;28;20103;-45
2021/08/09 02:49:48;;;;;;;1.27;0.30;;;26.30;41.60;;;;;;5044381;28;20041;-46
2021/08/09 02:52:18;;;;;;;1.95;0.10;;;26.10;41.90;;;;;;5041519;28;20181;-47
2021/08/09 02:54:47;;;;;;;1.60;0.20;;;25.90;42.10;;;;;;5032759;28;20053;-45
2021/08/09 02:57:16;;;;;;;2.30;0.40;;;25.70;42.50;;;;;;5032479;28;20075;-46
2021/08/09 02:59:45;;;;;;;3.22;0.10;;;25.50;42.90;;;;;;5036484;28;20511;-45
2021/08/09 03:02:13;;;;;;;2.83;0.10;;;25.40;43.20;;;;;;5044331;28;20041;-45
2021/08/09 03:04:42;;;;;;;1.85;0.10;;;25.20;43.50;;;;;;5037940;28;20478;-44
2021/08/09 03:07:11;;;;;;;1.42;0.10;;;25.00;43.80;;;;;;5045635;28;20406;-46
2021/08/09 03:09:40;;;;;;;0.60;0.10;;;24.90;44.10;;;;;;5038010;28;20396;-46
2021/08/09 03:12:08;;;;;;;2.95;0.63;;;24.80;44.40;;;;;;5040584;28;20127;-47
2021/08/09 03:14:38;;;;;;;1.05;0.10;;;24.60;44.70;;;;;;5043952;28;20418;-45
2021/08/09 03:17:05;;;;;;;1.63;0.10;;;24.50;45.00;;;;;;5044018;28;20107;-49
2021/08/09 03:19:33;;;;;;;0.98;0.10;;;24.40;45.30;;;;;;5043072;28;21413;-48
2021/08/09 03:22:02;;;;;;;2.92;0.43;;;24.30;45.50;;;;;;5027475;28;20423;-47
2021/08/09 03:24:32;;;;;;;1.67;0.10;;;24.20;45.80;;;;;;5035721;28;20135;-51
2021/08/09 03:27:00;;;;;;;1.58;0.10;;;24.10;46.00;;;;;;5037924;28;20132;-50
2021/08/09 03:29:27;;;;;;;1.05;0.10;;;24.00;46.30;;;;;;5044018;28;20041;-47
2021/08/09 03:31:55;;;;;;;1.27;0.10;;;23.90;46.50;;;;;;5043428;28;20076;-50
2021/08/09 03:34:23;;;;;;;0.65;0.10;;;23.80;46.70;;;;;;5047695;28;20049;-52
2021/08/09 03:36:52;;;;;;;0.90;0.32;;;23.80;47.00;;;;;;5044879;28;21217;-50
2021/08/09 03:39:20;;;;;;;1.33;0.10;;;23.70;47.10;;;;;;5035437;28;20037;-50
2021/08/09 03:41:49;;;;;;;1.17;0.10;;;23.60;47.30;;;;;;5034766;28;20056;-53
2021/08/09 03:44:16;;;;;;;1.27;0.15;;;23.60;47.40;;;;;;5040453;28;20050;-52
2021/08/09 03:46:43;;;;;;;0.60;0.10;;;23.50;47.60;;;;;;5043436;28;20140;-47
2021/08/09 03:49:11;;;;;;;0.95;0.20;;;23.40;47.70;;;;;;5046506;28;20838;-49
2021/08/09 03:51:39;;;;;;;3.25;0.60;;;23.40;47.90;;;;;;5034829;28;20053;-47
2021/08/09 03:54:08;;;;;;;2.50;0.75;;;23.30;48.00;;;;;;5029307;28;20103;-48
2021/08/09 03:56:36;;;;;;;4.03;0.32;;;23.30;48.20;;;;;;5038771;28;20534;-50
2021/08/09 03:59:05;;;;;;;0.82;0.60;;;23.20;48.20;;;;;;5027790;28;20068;-49
2021/08/09 04:01:37;;;;;;;4.22;0.32;;;23.20;48.40;;;;;;5028339;28;20490;-48
2021/08/09 04:04:05;;;;;;;1.63;0.25;;;23.10;48.50;;;;;;5033166;28;20057;-48
2021/08/09 04:06:33;;;;;;;0.20;0.20;;;23.10;48.70;;;;;;5053629;28;20205;-48
2021/08/09 04:09:01;;;;;;;1.02;0.10;;;23.00;48.80;;;;;;5041474;28;20059;-49
2021/08/09 04:11:29;;;;;;;1.08;0.30;;;22.90;48.90;;;;;;5046160;28;20072;-48
2021/08/09 04:13:57;;;;;;;0.28;0.10;;;22.90;49.00;;;;;;5033846;28;20037;-48
2021/08/09 04:16:26;;;;;;;2.03;0.35;;;22.80;49.00;;;;;;5034893;28;20099;-46
2021/08/09 04:18:54;;;;;;;1.67;0.13;;;22.80;49.30;;;;;;5048878;28;20522;-48
2021/08/09 04:21:21;;;;;;;0.60;0.10;;;22.80;49.50;;;;;;5034489;28;20518;-45
2021/08/09 04:23:49;;;;;;;2.53;0.10;;;22.70;49.50;;;;;;5039125;28;20417;-48
2021/08/09 04:26:18;;;;;;;5.68;0.43;;;22.70;49.60;;;;;;5046985;28;20862;-47
2021/08/09 04:28:46;;;;;;;3.88;0.10;;;22.60;49.70;;;;;;5048557;28;20044;-48
2021/08/09 04:31:13;;;;;;;3.28;0.30;;;22.60;50.00;;;;;;5058747;28;20041;-47
2021/08/09 04:33:43;;;;;;;5.15;1.05;;;22.50;50.10;;;;;;5040679;28;20045;-46
2021/08/09 04:36:10;;;;;;;2.08;0.10;;;22.50;50.20;;;;;;5036912;28;20333;-46
2021/08/09 04:38:38;;;;;;;0.95;0.10;;;22.40;50.30;;;;;;5037973;28;20133;-45
2021/08/09 04:41:08;;;;;;;2.28;0.10;;;22.50;50.40;;;;;;5045811;28;20049;-45
2021/08/09 04:43:37;;;;;;;2.47;0.15;;;22.40;50.50;;;;;;5033802;28;20445;-49
2021/08/09 04:46:06;;;;;;;1.67;0.20;;;22.40;50.60;;;;;;5032610;28;20056;-45
2021/08/09 04:48:36;;;;;;;1.50;0.65;;;22.40;50.70;;;;;;5039082;28;20194;-44
2021/08/09 04:51:05;;;;;;;0.90;0.10;;;22.40;50.90;;;;;;5040444;28;20380;-45
2021/08/09 04:53:32;;;;;;;0.50;0.10;;;22.30;50.90;;;;;;5045437;28;20045;-44
2021/08/09 04:56:00;;;;;;;5.93;0.45;;;22.30;51.10;;;;;;5032460;28;20115;-45
2021/08/09 04:58:30;;;;;;;1.58;0.15;;;22.30;51.20;;;;;;5048952;28;20408;-48
2021/08/09 05:00:59;;;;;;;0.93;0.40;;;22.30;51.30;;;;;;5038618;28;20514;-46
2021/08/09 05:03:27;;;;;;;1.95;0.10;;;22.30;51.40;;;;;;5047640;28;20044;-50
2021/08/09 05:05:54;;;;;;;1.98;0.20;;;22.20;51.50;;;;;;5041080;28;20042;-46
2021/08/09 05:08:23;;;;;;;6.57;0.35;;;22.20;51.60;;;;;;5049684;28;20077;-50
2021/08/09 05:10:50;;;;;;;0.52;0.20;;;22.20;51.70;;;;;;5040290;28;20045;-48
2021/08/09 05:13:18;;;;;;;2.97;0.10;;;22.20;51.80;;;;;;5050482;28;20041;-49
2021/08/09 05:15:45;;;;;;;4.03;1.17;;;22.20;51.80;;;;;;5048131;28;20086;-47
2021/08/09 05:18:14;;;;;;;1.50;0.35;;;22.20;52.00;;;;;;5052268;28;20175;-53
2021/08/09 05:20:41;;;;;;;4.40;0.10;;;22.20;52.00;;;;;;5035978;28;20465;-51
2021/08/09 05:23:08;;;;;;;0.77;0.20;;;22.20;52.10;;;;;;5033080;28;20087;-52
2021/08/09 05:25:38;;;;;;;4.45;0.98;;;22.20;52.20;;;;;;5039635;28;20049;-48
2021/08/09 05:28:05;;;;;;;2.72;0.20;;;22.10;52.80;;;;;;5040502;28;20044;-49
2021/08/09 05:30:33;;;;;;;3.95;0.85;;;22.10;52.20;;;;;;5040343;28;20559;-48
2021/08/09 05:33:01;;;;;;;1.85;0.30;;;22.10;52.30;;;;;;5037541;28;20060;-47
2021/08/09 05:35:28;;;;;;;5.60;0.10;;;22.10;52.30;;;;;;5043780;28;20788;-48
2021/08/09 05:37:56;;;;;;;2.55;0.60;;;22.10;52.40;;;;;;5045078;28;20864;-49
2021/08/09 05:40:23;;;;;;;0.50;0.10;;;22.10;52.50;;;;;;5049156;28;20523;-47
2021/08/09 05:42:52;;;;;;;2.70;0.10;;;22.10;52.60;;;;;;5037659;28;20506;-45
2021/08/09 05:45:21;;;;;;;2.92;0.40;;;22.10;52.60;;;;;;5052737;28;20621;-50
2021/08/09 05:47:48;;;;;;;2.17;0.20;;;22.10;52.70;;;;;;5038966;28;20048;-48
2021/08/09 05:50:15;;;;;;;1.98;0.75;;;22.10;52.80;;;;;;5033541;28;20098;-46
2021/08/09 05:52:53;;;;;;;2.67;0.10;;;22.10;52.80;;;;;;5044947;28;20055;-46
2021/08/09 05:55:23;;;;;;;3.13;0.30;;;22.10;52.80;;;;;;5031099;28;20132;-45
2021/08/09 05:57:52;;;;;;;4.63;0.50;;;22.20;53.00;;;;;;5033015;28;20065;-47
2021/08/09 06:00:21;;;;;;;1.88;0.10;;;22.20;53.00;;;;;;5049990;28;20053;-46
2021/08/09 06:02:55;;;;;;;3.30;0.55;;;22.20;53.00;;;;;;5036046;28;20451;-46
2021/08/09 06:05:44;;;;;;;2.92;0.43;;;22.20;53.00;;;;;;5053264;28;20053;-49
2021/08/09 06:08:14;;;;;;;4.65;0.68;;;22.20;53.60;;;;;;5051776;28;20048;-46
2021/08/09 06:10:42;;;;;;;4.40;0.17;;;22.20;53.10;;;;;;5051952;28;20049;-48
2021/08/09 06:13:14;;;;;;;2.25;0.35;;;22.20;53.10;;;;;;5019518;28;20044;-51
2021/08/09 06:15:41;;;;;;;3.08;0.15;;;22.20;53.10;;;;;;5037862;28;20037;-50
2021/08/09 06:18:10;;;;;;;5.18;0.20;;;22.20;53.10;;;;;;5056122;28;20037;-50
2021/08/09 06:20:38;;;;;;;0.88;0.10;;;22.20;53.10;;;;;;5043772;28;20099;-46
2021/08/09 06:23:06;;;;;;;4.13;0.35;;;22.30;53.20;;;;;;5044538;28;20044;-47
2021/08/09 06:25:34;;;;;;;1.58;0.50;;;22.20;53.10;;;;;;5028350;28;20128;-44
2021/08/09 06:28:02;;;;;;;2.58;0.30;;;22.30;53.20;;;;;;5044093;28;20045;-48
2021/08/09 06:30:32;;;;;;;1.25;0.35;;;22.30;53.20;;;;;;5041311;28;20499;-48
2021/08/09 06:32:59;;;;;;;1.98;0.40;;;22.30;53.10;;;;;;5058173;28;20135;-48
2021/08/09 06:35:26;;;;;;;3.58;0.32;;;22.40;53.20;;;;;;5044319;28;20061;-46
2021/08/09 06:37:53;;;;;;;3.13;0.20;;;22.40;53.20;;;;;;5029682;28;20049;-45
2021/08/09 06:40:21;;;;;;;1.75;0.60;;;22.30;53.10;;;;;;5042985;28;20072;-50
2021/08/09 06:42:50;;;;;;;4.13;0.57;;;22.40;53.10;;;;;;5059240;28;20811;-45
2021/08/09 06:45:25;;;;;;;4.95;0.85;;;22.30;53.10;;;;;;5044822;28;20083;-48
2021/08/09 06:47:53;;;;;;;2.78;1.17;;;22.30;53.20;;;;;;5044015;28;20128;-48
2021/08/09 06:50:21;;;;;;;1.42;0.52;;;22.40;53.50;;;;;;5041405;28;20085;-50
2021/08/09 06:52:48;;;;;;;3.70;0.30;;;22.40;54.20;;;;;;5027977;28;20040;-51
2021/08/09 06:55:16;;;;;;;2.67;0.45;;;22.40;53.70;;;;;;5045553;28;20056;-48
2021/08/09 06:57:43;;;;;;;4.55;0.28;;;22.40;53.80;;;;;;5044352;28;20116;-49
2021/08/09 07:00:12;;;;;;;3.50;0.30;;;22.50;53.90;;;;;;5041236;28;20754;-46
2021/08/09 07:02:39;;;;;;;2.80;0.13;;;22.50;54.00;;;;;;5028715;28;20052;-50
2021/08/09 07:05:26;;;;;;;2.22;0.20;;;22.50;53.80;;;;;;5038666;28;20065;-48
2021/08/09 07:07:53;;;;;;;2.60;0.28;;;22.60;53.90;;;;;;5045448;28;20461;-48
2021/08/09 07:10:21;;;;;;;1.63;0.28;;;22.60;54.00;;;;;;5036502;28;20037;-45
2021/08/09 07:12:48;;;;;;;4.75;0.47;;;22.60;54.10;;;;;;5040124;28;20053;-45
2021/08/09 07:15:16;;;;;;;3.30;0.40;;;22.60;54.10;;;;;;5051518;28;20495;-46
2021/08/09 07:17:44;;;;;;;3.13;0.20;;;22.60;54.10;;;;;;5053436;28;20419;-46
2021/08/09 07:20:16;;;;;;;1.58;0.50;;;22.70;54.30;;;;;;5050361;28;20100;-47
2021/08/09 07:22:47;;;;;;;3.30;0.10;;;22.70;54.20;;;;;;5041756;28;20517;-51
2021/08/09 07:25:18;;;;;;;5.25;0.22;;;22.70;54.10;;;;;;5037306;28;20155;-48
2021/08/09 07:27:47;;;;;;;2.13;0.20;;;22.70;54.10;;;;;;5040845;28;20124;-46
2021/08/09 07:30:15;;;;;;;2.47;0.10;;;22.80;54.20;;;;;;5043883;28;20074;-47
2021/08/09 07:32:44;;;;;;;1.35;0.75;;;22.80;54.20;;;;;;5043131;28;20052;-52
2021/08/09 07:35:13;;;;;;;3.13;0.22;;;22.80;54.10;;;;;;5043246;28;20049;-53
2021/08/09 07:37:41;;;;;;;1.80;0.15;;;22.80;54.00;;;;;;5035336;28;20076;-50
2021/08/09 07:40:11;;;;;;;3.95;0.28;;;22.90;54.10;;;;;;5036765;28;20524;-50
2021/08/09 07:42:38;;;;;;;2.70;0.30;;;22.80;54.20;;;;;;5062434;28;20129;-49
2021/08/09 07:45:07;;;;;;;1.33;0.30;;;22.90;54.30;;;;;;5064116;28;20533;-52
2021/08/09 07:47:34;;;;;;;5.40;0.45;;;22.90;54.20;;;;;;5049219;28;20052;-54
2021/08/09 07:50:04;;;;;;;1.60;0.20;;;22.90;54.10;;;;;;5047843;28;20635;-51
2021/08/09 07:52:31;;;;;;;7.30;0.55;;;23.10;54.00;;;;;;5049581;28;20115;-54
2021/08/09 07:54:58;;;;;;;2.60;0.17;;;23.20;53.70;;;;;;5045052;28;20045;-54
2021/08/09 07:57:28;;;;;;;1.25;0.35;;;23.30;53.30;;;;;;5054891;28;20049;-51
2021/08/09 07:59:56;;;;;;;2.13;0.20;;;23.40;53.10;;;;;;5047212;28;20557;-52
2021/08/09 08:02:23;;;;;;;2.60;0.57;;;23.40;52.90;;;;;;5038356;28;20048;-53
2021/08/09 08:04:51;;;;;;;3.67;0.45;;;23.60;53.00;;;;;;5049950;28;20047;-52
2021/08/09 08:07:19;;;;;;;2.50;0.50;;;23.60;52.80;;;;;;5032122;28;20049;-52
2021/08/09 08:09:48;;;;;;;2.05;0.20;;;23.70;52.50;;;;;;5049770;28;20100;-54
2021/08/09 08:12:15;;;;;;;0.68;0.40;;;23.80;52.30;;;;;;5043586;28;20499;-49
2021/08/09 08:14:44;;;;;;;7.88;0.20;;;23.80;52.20;;;;;;5043927;28;20111;-52
2021/08/09 08:17:12;;;;;;;1.52;0.20;;;23.90;52.10;;;;;;5056841;28;20037;-50
2021/08/09 08:19:39;;;;;;;1.88;0.20;;;23.90;52.00;;;;;;5044188;28;20132;-49
2021/08/09 08:22:07;;;;;;;2.15;0.30;;;24.00;52.00;;;;;;5037997;28;20426;-50
2021/08/09 08:24:36;;;;;;;2.85;0.30;;;24.10;51.80;;;;;;5045922;28;20523;-50
2021/08/09 08:27:05;;;;;;;3.15;0.35;;;24.10;51.70;;;;;;5058280;28;20124;-49
2021/08/09 08:29:32;;;;;;;0.70;0.28;;;24.10;51.50;;;;;;5044931;28;20408;-53
2021/08/09 08:32:01;;;;;;;6.35;0.40;;;24.20;51.50;;;;;;5047368;28;20041;-56
2021/08/09 08:34:29;;;;;;;2.55;0.75;;;24.20;51.20;;;;;;5047363;28;20586;-50
2021/08/09 08:36:57;;;;;;;2.70;0.65;;;24.30;51.40;;;;;;5050348;28;20136;-52
2021/08/09 08:39:25;;;;;;;0.93;0.30;;;24.40;51.20;;;;;;5036444;28;20056;-53
2021/08/09 08:41:53;;;;;;;1.58;0.43;;;24.40;51.00;;;;;;5040712;28;20045;-51
2021/08/09 08:44:22;;;;;;;4.68;0.40;;;24.40;50.80;;;;;;5033027;28;20566;-52
2021/08/09 08:46:50;;;;;;;3.30;0.60;;;24.40;50.50;;;;;;5036041;28;20067;-55
2021/08/09 08:49:20;;;;;;;3.15;0.20;;;24.50;50.40;;;;;;5047678;28;20041;-52
2021/08/09 08:51:50;;;;;;;3.25;0.22;;;24.50;50.30;;;;;;5048887;28;20128;-55
2021/08/09 08:54:20;;;;;;;2.20;0.20;;;24.50;50.30;;;;;;5042978;28;20511;-50
2021/08/09 08:56:48;;;;;;;2.65;0.20;;;24.60;50.20;;;;;;5044587;28;20116;-50
2021/08/09 08:59:18;;;;;;;2.47;0.25;;;24.60;50.00;;;;;;5044078;28;20037;-52
2021/08/09 09:01:46;;;;;;;2.38;0.60;;;24.60;50.00;;;;;;5042828;28;20076;-53
2021/08/09 09:04:26;;;;;;;2.17;0.30;;;24.60;50.10;;;;;;5036544;28;20039;-50
2021/08/09 09:07:02;;;;;;;3.50;0.75;;;24.60;50.00;;;;;;5037617;28;20044;-52
2021/08/09 09:09:33;;;;;;;3.58;0.10;;;24.70;50.10;;;;;;5056139;28;20422;-52
2021/08/09 09:12:12;;;;;;;3.40;0.35;;;24.70;49.90;;;;;;5035970;28;20044;-51
2021/08/09 09:14:40;;;;;;;4.70;0.57;;;24.70;49.90;;;;;;5035007;28;20505;-53
2021/08/09 09:17:07;;;;;;;2.50;0.55;;;24.70;50.00;;;;;;5037872;28;20117;-52
2021/08/09 09:19:38;;;;;;;1.77;0.10;;;24.70;50.00;;;;;;5040695;28;20055;-54
2021/08/09 09:22:07;;;;;;;3.22;0.15;;;24.70;50.10;;;;;;5035091;28;20060;-52
2021/08/09 09:24:36;;;;;;;0.93;0.32;;;24.60;50.00;;;;;;5039868;28;20130;-53
2021/08/09 09:27:07;;;;;;;2.85;0.20;;;24.60;50.10;;;;;;5044433;28;20072;-53
2021/08/09 09:29:36;;;;;;;0.95;0.10;;;24.70;50.00;;;;;;5047029;28;20516;-53
2021/08/09 09:32:19;;;;;;;2.47;0.30;;;24.70;49.90;;;;;;5043404;28;20045;-55
2021/08/09 09:34:49;;;;;;;0.63;0.10;;;24.70;49.70;;;;;;5045176;28;20052;-53
2021/08/09 09:37:26;;;;;;;10.00;1.17;;;24.70;49.50;;;;;;5043090;28;20556;-56
2021/08/09 09:39:53;;;;;;;0.80;0.10;;;24.80;49.40;;;;;;5037043;28;20428;-54
2021/08/09 09:42:20;;;;;;;2.42;0.65;;;24.80;49.50;;;;;;5042815;28;20047;-51
2021/08/09 09:44:47;;;;;;;3.55;1.75;;;24.80;49.40;;;;;;5045120;28;20051;-52
2021/08/09 09:47:21;;;;;;;3.20;0.20;;;24.80;49.20;;;;;;5047207;28;20047;-49
2021/08/09 09:49:50;;;;;;;3.83;0.43;;;24.90;49.00;;;;;;5045498;28;20053;-49
2021/08/09 09:52:34;;;;;;;4.97;0.15;;;24.90;49.40;;;;;;5043828;28;20045;-51
2021/08/09 09:55:04;;;;;;;5.25;0.55;;;25.00;50.40;;;;;;5030695;28;20088;-54
2021/08/09 09:57:32;;;;;;;3.45;1.00;;;25.00;49.90;;;;;;5046652;28;20124;-59
2021/08/09 10:00:00;;;;;;;5.40;1.10;;;25.10;50.00;;;;;;5040214;28;20454;-56
2021/08/09 10:02:27;;;;;;;4.05;0.40;;;25.10;50.00;;;;;;5040562;28;20048;-56
2021/08/09 10:04:56;;;;;;;1.88;0.20;;;25.20;50.00;;;;;;5033893;28;20071;-55
2021/08/09 10:07:26;;;;;;;3.55;0.47;;;25.20;49.90;;;;;;5033677;28;20041;-57
2021/08/09 10:09:55;;;;;;;1.38;0.28;;;25.20;49.90;;;;;;5046501;28;20080;-56
2021/08/09 10:12:27;;;;;;;3.53;0.68;;;25.30;49.90;;;;;;5046480;28;20577;-55
2021/08/09 10:14:55;;;;;;;2.28;0.40;;;25.30;49.80;;;;;;5042321;28;20041;-54
2021/08/09 10:17:24;;;;;;;2.35;0.20;;;25.30;49.70;;;;;;5041757;28;20180;-55
2021/08/09 10:19:53;;;;;;;2.40;0.30;;;25.30;49.70;;;;;;5030993;28;20085;-53
2021/08/09 10:22:22;;;;;;;1.20;0.20;;;25.30;49.70;;;;;;5047452;28;20049;-55
2021/08/09 10:24:53;;;;;;;8.00;0.38;;;25.40;49.70;;;;;;5034847;28;20049;-53
2021/08/09 10:27:52;;;;;;;0.90;0.20;;;25.40;49.60;;;;;;5035472;28;20466;-55
2021/08/09 10:30:20;;;;;;;1.45;0.10;;;25.40;49.60;;;;;;5042502;28;20143;-49
2021/08/09 10:32:50;;;;;;;1.08;0.40;;;25.30;49.50;;;;;;5046040;28;20041;-50
2021/08/09 10:36:03;;;;;;;2.38;0.32;;;25.40;49.60;;;;;;5046372;28;20143;-54
2021/08/09 10:38:43;;;;;;;4.57;0.38;;;25.50;49.50;;;;;;5034202;28;20049;-51
2021/08/09 10:41:33;;;;;;;2.72;0.38;;;25.50;49.60;;;;;;5033006;28;20060;-52
2021/08/09 10:44:22;;;;;;;5.22;1.65;;;25.50;49.70;;;;;;5032074;28;20037;-53
2021/08/09 10:46:50;;;;;;;4.18;0.40;;;25.50;49.80;;;;;;5043677;28;20040;-55
2021/08/09 10:49:56;;;;;;;1.75;0.20;;;25.50;49.90;;;;;;5046252;28;20041;-54
2021/08/09 10:52:38;;;;;;;2.20;1.02;;;25.60;50.00;;;;;;5043134;28;20052;-52
2021/08/09 10:55:44;;;;;;;2.50;0.20;;;25.60;50.00;;;;;;5047269;28;20052;-50
2021/08/09 10:58:51;;;;;;;1.88;0.20;;;25.60;50.10;;;;;;5023273;28;20061;-51
2021/08/09 11:01:24;;;;;;;3.97;0.30;;;25.60;50.10;;;;;;5043024;28;20048;-52
2021/08/09 11:04:16;;;;;;;1.88;0.20;;;25.60;50.10;;;;;;5044208;28;20048;-51
2021/08/09 11:06:52;;;;;;;1.13;0.52;;;25.60;50.00;;;;;;5045906;28;20048;-50
2021/08/09 11:09:42;;;;;;;0.77;0.15;;;25.60;50.10;;;;;;5042102;28;20056;-51
2021/08/09 11:12:10;;;;;;;3.13;0.47;;;25.70;50.00;;;;;;5049602;28;20095;-55
2021/08/09 11:15:07;;;;;;;2.17;0.50;;;25.60;50.00;;;;;;5047041;28;20048;-54
2021/08/09 11:17:46;;;;;;;1.75;0.52;;;25.70;50.00;;;;;;5048360;28;20490;-53
2021/08/09 11:20:16;;;;;;;2.10;0.45;;;25.70;49.90;;;;;;5037254;28;20072;-55
2021/08/09 11:22:45;;;;;;;0.52;0.10;;;25.70;50.00;;;;;;5032421;28;20477;-53
2021/08/09 11:25:31;;;;;;;1.65;0.30;;;25.70;49.80;;;;;;5035948;28;20046;-52
2021/08/09 11:28:03;;;;;;;1.48;0.20;;;25.80;49.80;;;;;;5050388;28;20052;-50
2021/08/09 11:30:49;;;;;;;0.75;0.52;;;25.80;49.90;;;;;;5049060;28;20040;-51
2021/08/09 11:33:36;;;;;;;1.65;0.88;;;25.80;49.80;;;;;;5049448;28;20461;-52
2021/08/09 11:36:05;;;;;;;4.30;0.63;;;25.80;49.70;;;;;;5049370;28;20140;-52
2021/08/09 11:38:42;;;;;;;5.30;0.20;;;25.80;49.80;;;;;;5045740;28;20041;-52
2021/08/09 11:41:11;;;;;;;1.83;0.82;;;25.90;49.80;;;;;;5049449;28;20123;-50
2021/08/09 11:43:39;;;;;;;1.45;0.77;;;25.90;49.70;;;;;;5049353;28;20049;-55
2021/08/09 11:46:07;;;;;;;0.95;0.52;;;25.90;49.60;;;;;;5050637;28;20064;-52
2021/08/09 11:48:38;;;;;;;1.05;0.13;;;25.90;49.50;;;;;;5049309;28;20138;-51
2021/08/09 11:51:07;;;;;;;2.28;0.10;;;26.00;49.50;;;;;;5049107;28;20053;-52
2021/08/09 11:53:35;;;;;;;0.60;0.20;;;26.00;49.40;;;;;;5047494;28;20057;-51
2021/08/09 11:56:08;;;;;;;1.30;0.50;;;26.00;49.30;;;;;;5017556;28;20037;-54
2021/08/09 11:58:36;;;;;;;2.65;0.63;;;26.00;49.30;;;;;;5048886;28;20141;-49
2021/08/09 12:01:04;;;;;;;1.95;0.30;;;26.10;49.30;;;;;;5048989;28;20479;-53
2021/08/09 12:03:32;;;;;;;1.45;0.30;;;26.10;49.30;;;;;;5049157;28;20051;-50
2021/08/09 12:06:25;;;;;;;0.35;0.20;;;26.10;49.20;;;;;;5048804;28;20414;-54
2021/08/09 12:08:53;;;;;;;1.42;0.10;;;26.20;49.20;;;;;;5043916;28;20056;-53
2021/08/09 12:11:28;;;;;;;1.58;0.10;;;26.20;49.30;;;;;;5049039;28;20486;-53
2021/08/09 12:14:03;;;;;;;0.88;0.50;;;26.20;49.20;;;;;;5033662;28;20464;-55
2021/08/09 12:16:46;;;;;;;0.50;0.43;;;26.20;49.20;;;;;;5049019;28;20138;-53
2021/08/09 12:19:15;;;;;;;1.20;0.47;;;26.20;49.10;;;;;;5045510;28;20411;-54
2021/08/09 12:21:44;;;;;;;1.52;0.15;;;26.20;49.10;;;;;;5048251;28;20086;-51
2021/08/09 12:24:23;;;;;;;1.27;0.20;;;26.30;49.00;;;;;;5048354;28;20152;-53
2021/08/09 12:26:53;;;;;;;1.05;0.28;;;26.30;48.90;;;;;;5048764;28;20037;-51
2021/08/09 12:29:23;;;;;;;0.63;0.17;;;26.30;48.90;;;;;;5048742;28;20083;-54
2021/08/09 12:31:51;;;;;;;0.60;0.30;;;26.30;48.90;;;;;;5032772;28;20061;-51
2021/08/09 12:34:21;;;;;;;1.60;0.17;;;26.40;48.90;;;;;;5045731;28;20056;-52
2021/08/09 12:36:50;;;;;;;0.30;0.20;;;26.40;48.80;;;;;;5049001;28;20053;-54
2021/08/09 12:39:35;;;;;;;1.65;0.10;;;26.50;48.90;;;;;;5048338;28;20123;-50
2021/08/09 12:42:13;;;;;;;0.57;0.30;;;26.50;48.70;;;;;;5048144;28;20044;-53
2021/08/09 12:44:40;;;;;;;4.13;0.47;;;26.50;49.20;;;;;;5048175;28;20254;-53
2021/08/09 12:47:08;;;;;;;0.50;0.30;;;26.50;48.60;;;;;;5048354;28;20041;-53
2021/08/09 12:49:35;;;;;;;0.70;0.15;;;26.60;48.50;;;;;;5048178;28;20037;-54
2021/08/09 12:52:03;;;;;;;1.65;0.13;;;26.60;48.50;;;;;;5032806;28;20148;-53
2021/08/09 12:54:31;;;;;;;0.75;0.20;;;26.60;48.40;;;;;;5045780;28;20088;-54
2021/08/09 12:56:59;;;;;;;0.63;0.30;;;26.60;48.40;;;;;;5047950;28;20049;-55
2021/08/09 12:59:28;;;;;;;0.20;0.20;;;26.70;48.30;;;;;;5047927;28;20044;-55
2021/08/09 13:01:56;;;;;;;0.43;0.20;;;26.70;48.20;;;;;;5048194;28;20045;-54
2021/08/09 13:04:24;;;;;;;0.22;0.13;;;26.70;48.10;;;;;;5048579;28;20041;-50